Time;durP1;ratioP1;P1;durP2;ratioP2;P2;SDS_P1;SDS_P2;PMS_P1;PMS_P2;Temp;Humidity;BMP_temperature;BMP_pressure;BME280_temperature;BME280_humidity;BME280_pressure;Samples;Min_cycle;Max_cycle;Signal;HPM_P1;HPM_P2
2023/06/27 00:00:26;;;;;;;;;;;17.10;99.90;;;;;;20912614;28;19920;-74
2023/06/27 00:10:26;;;;;;;;;;;17.00;99.90;;;;;;20911685;28;19916;-74
2023/06/27 00:20:27;;;;;;;;;;;16.70;99.90;;;;;;20991499;28;20382;-73
2023/06/27 00:30:28;;;;;;;;;;;16.50;99.90;;;;;;20972884;28;19924;-74
2023/06/27 00:40:29;;;;;;;;;;;16.20;99.90;;;;;;20979691;28;20317;-74
2023/06/27 00:50:31;;;;;;;;;;;15.80;99.90;;;;;;20990973;28;19916;-75
2023/06/27 01:00:32;;;;;;;;;;;15.60;99.90;;;;;;20991291;28;20424;-75
2023/06/27 01:10:36;;;;;;;;;;;15.50;99.90;;;;;;20989700;28;19920;-75
2023/06/27 01:20:36;;;;;;;;;;;15.10;99.90;;;;;;20989145;28;19912;-75
2023/06/27 01:30:37;;;;;;;;;;;15.20;99.90;;;;;;20989812;28;20302;-75
2023/06/27 01:40:39;;;;;;;;;;;15.10;99.90;;;;;;20974680;28;20287;-75
2023/06/27 01:50:40;;;;;;;;;;;15.30;99.90;;;;;;20939627;28;20046;-74
2023/06/27 02:00:40;;;;;;;;;;;14.90;99.90;;;;;;20940206;28;19952;-75
2023/06/27 02:10:41;;;;;;;;;;;14.50;99.90;;;;;;20929821;28;19928;-75
2023/06/27 02:20:43;;;;;;;;;;;14.50;99.90;;;;;;20984129;28;19996;-75
2023/06/27 02:30:44;;;;;;;;;;;14.40;99.90;;;;;;20993515;28;19948;-75
2023/06/27 02:40:44;;;;;;;;;;;14.40;99.90;;;;;;20974506;28;19920;-74
2023/06/27 02:50:49;;;;;;;;;;;14.40;99.90;;;;;;20976616;28;19920;-75
2023/06/27 03:00:50;;;;;;;;;;;14.10;99.90;;;;;;20976564;28;20022;-74
2023/06/27 03:10:52;;;;;;;;;;;13.70;99.90;;;;;;20997984;28;19912;-75
2023/06/27 03:20:54;;;;;;;;;;;13.50;99.90;;;;;;21012732;28;20378;-75
2023/06/27 03:30:54;;;;;;;;;;;13.20;99.90;;;;;;20986144;28;19935;-75
2023/06/27 03:40:56;;;;;;;;;;;13.50;99.90;;;;;;20985323;28;20325;-74
2023/06/27 03:50:56;;;;;;;;;;;13.70;99.90;;;;;;20995692;28;19924;-75
2023/06/27 04:00:57;;;;;;;;;;;13.50;99.90;;;;;;20988345;28;19970;-74
2023/06/27 04:10:58;;;;;;;;;;;13.30;99.90;;;;;;20982457;28;19919;-75
2023/06/27 04:21:00;;;;;;;;;;;13.40;99.90;;;;;;20992522;28;19939;-75
2023/06/27 04:31:01;;;;;;;;;;;13.60;99.90;;;;;;20991035;28;19912;-76
2023/06/27 04:41:03;;;;;;;;;;;13.50;99.90;;;;;;20992558;28;20019;-76
2023/06/27 04:51:03;;;;;;;;;;;14.40;99.90;;;;;;20952648;28;19917;-75
2023/06/27 05:01:04;;;;;;;;;;;15.00;99.90;;;;;;20920013;28;19939;-75
2023/06/27 05:11:05;;;;;;;;;;;15.60;99.90;;;;;;20954200;28;19923;-74
2023/06/27 05:21:05;;;;;;;;;;;14.90;99.90;;;;;;20957500;28;19916;-75
2023/06/27 05:31:06;;;;;;;;;;;15.10;99.90;;;;;;20970930;28;19912;-75
2023/06/27 05:41:07;;;;;;;;;;;15.60;99.90;;;;;;20991723;28;20010;-74
2023/06/27 05:51:08;;;;;;;;;;;15.90;99.90;;;;;;21006287;28;19917;-75
2023/06/27 06:01:09;;;;;;;;;;;15.90;99.90;;;;;;21005712;28;19916;-75
2023/06/27 06:11:09;;;;;;;;;;;16.00;99.90;;;;;;21004567;28;20437;-75
2023/06/27 06:21:12;;;;;;;;;;;15.90;99.90;;;;;;21003691;28;19916;-74
2023/06/27 06:31:16;;;;;;;;;;;15.80;99.90;;;;;;21003252;28;19913;-75
2023/06/27 06:41:18;;;;;;;;;;;16.30;99.90;;;;;;21002228;28;20340;-75
2023/06/27 06:51:18;;;;;;;;;;;17.10;99.90;;;;;;21000636;28;19922;-75
2023/06/27 07:01:20;;;;;;;;;;;17.40;99.90;;;;;;21000784;28;20359;-75
2023/06/27 07:11:21;;;;;;;;;;;18.20;99.90;;;;;;21000243;28;19913;-75
2023/06/27 07:21:21;;;;;;;;;;;18.50;99.90;;;;;;20999142;28;20350;-75
2023/06/27 07:31:22;;;;;;;;;;;18.80;99.90;;;;;;20986784;28;19913;-76
2023/06/27 07:41:22;;;;;;;;;;;18.70;99.90;;;;;;20933083;28;19923;-77
2023/06/27 07:51:23;;;;;;;;;;;18.70;99.90;;;;;;21050827;22;19935;-77
2023/06/27 08:01:24;;;;;;;;;;;19.50;99.90;;;;;;21045998;28;19923;-78
2023/06/27 08:11:24;;;;;;;;;;;20.10;99.90;;;;;;21076249;28;19933;-78
2023/06/27 08:21:25;;;;;;;;;;;20.80;99.90;;;;;;21099290;28;20334;-78
2023/06/27 08:31:26;;;;;;;;;;;20.80;99.90;;;;;;21078180;28;20394;-79
2023/06/27 08:41:26;;;;;;;;;;;20.60;99.90;;;;;;21063992;28;19916;-78
2023/06/27 08:51:27;;;;;;;;;;;21.40;99.90;;;;;;21069622;28;20326;-79
2023/06/27 09:01:31;;;;;;;;;;;21.30;99.90;;;;;;21058555;28;19959;-81
2023/06/27 09:11:32;;;;;;;;;;;22.10;99.90;;;;;;21053783;28;19916;-76
2023/06/27 09:21:34;;;;;;;;;;;22.00;99.90;;;;;;21057153;28;19960;-76
2023/06/27 09:31:35;;;;;;;;;;;22.80;99.90;;;;;;21047350;28;20325;-76
2023/06/27 09:41:42;;;;;;;;;;;22.60;99.90;;;;;;21057256;28;19916;-76
2023/06/27 09:51:46;;;;;;;;;;;22.40;99.90;;;;;;21058999;28;19937;-76
2023/06/27 10:01:49;;;;;;;;;;;22.50;99.90;;;;;;21067356;28;20370;-76
2023/06/27 10:11:49;;;;;;;;;;;22.60;99.90;;;;;;21049168;28;19957;-76
2023/06/27 10:21:50;;;;;;;;;;;23.00;99.90;;;;;;21042882;28;20324;-76
2023/06/27 10:31:52;;;;;;;;;;;22.90;99.90;;;;;;21064159;28;19918;-76
2023/06/27 10:42:22;;;;;;;;;;;23.60;99.90;;;;;;21053044;28;19916;-79
2023/06/27 10:52:24;;;;;;;;;;;24.60;99.90;;;;;;21061754;28;19916;-78
2023/06/27 11:02:32;;;;;;;;;;;23.70;99.90;;;;;;21082715;28;19916;-78
2023/06/27 11:12:33;;;;;;;;;;;24.50;98.40;;;;;;21088373;28;19912;-78
2023/06/27 11:22:33;;;;;;;;;;;24.30;98.90;;;;;;21082743;28;19950;-78
2023/06/27 11:32:35;;;;;;;;;;;24.90;97.20;;;;;;21084054;28;19999;-77
2023/06/27 11:42:36;;;;;;;;;;;25.40;94.50;;;;;;21085769;28;19999;-78
2023/06/27 11:52:37;;;;;;;;;;;25.80;92.80;;;;;;21139758;28;19927;-77
2023/06/27 12:02:38;;;;;;;;;;;25.20;94.30;;;;;;21158599;28;19943;-77
2023/06/27 12:12:39;;;;;;;;;;;24.70;92.80;;;;;;21167156;28;19912;-78
2023/06/27 12:22:39;;;;;;;;;;;25.70;92.30;;;;;;21168410;28;19987;-78
2023/06/27 12:32:40;;;;;;;;;;;25.90;91.50;;;;;;21160643;28;19911;-78
2023/06/27 12:42:42;;;;;;;;;;;26.00;90.80;;;;;;21136752;28;20045;-78
2023/06/27 12:52:47;;;;;;;;;;;26.00;89.60;;;;;;21146396;28;19916;-78
2023/06/27 13:02:48;;;;;;;;;;;25.80;91.00;;;;;;21141856;28;19977;-78
2023/06/27 13:12:49;;;;;;;;;;;25.70;90.40;;;;;;21153920;28;19916;-78
2023/06/27 13:22:52;;;;;;;;;;;25.60;90.60;;;;;;21155540;28;20286;-77
2023/06/27 13:32:53;;;;;;;;;;;24.70;92.10;;;;;;21106883;28;19912;-77
2023/06/27 13:42:53;;;;;;;;;;;24.80;91.40;;;;;;21070768;28;19916;-76
2023/06/27 13:52:55;;;;;;;;;;;24.10;92.90;;;;;;21113872;28;19980;-76
2023/06/27 14:02:55;;;;;;;;;;;24.70;93.20;;;;;;21143228;28;19916;-77
2023/06/27 14:13:08;;;;;;;;;;;24.30;92.70;;;;;;21173245;28;19919;-77
2023/06/27 14:23:09;;;;;;;;;;;25.00;92.80;;;;;;21153870;28;19915;-77
2023/06/27 14:33:09;;;;;;;;;;;24.60;91.90;;;;;;21171608;28;19918;-77
2023/06/27 14:43:12;;;;;;;;;;;25.80;92.50;;;;;;21170337;28;19916;-77
2023/06/27 14:53:12;;;;;;;;;;;25.70;92.80;;;;;;21169883;28;19912;-77
2023/06/27 15:03:13;;;;;;;;;;;25.00;92.60;;;;;;21168929;28;19923;-77
2023/06/27 15:13:14;;;;;;;;;;;25.20;93.60;;;;;;21167642;28;20432;-77
2023/06/27 15:23:15;;;;;;;;;;;24.50;93.10;;;;;;21148712;28;19973;-78
2023/06/27 15:33:15;;;;;;;;;;;24.70;93.80;;;;;;21167763;28;19911;-77
2023/06/27 15:43:16;;;;;;;;;;;24.90;95.10;;;;;;21152644;28;20315;-77
2023/06/27 15:53:16;;;;;;;;;;;25.30;94.00;;;;;;21155873;28;20066;-76
2023/06/27 16:03:17;;;;;;;;;;;25.40;94.00;;;;;;21148258;28;20337;-76
2023/06/27 16:13:18;;;;;;;;;;;25.10;93.80;;;;;;21131423;28;19919;-76
2023/06/27 16:23:19;;;;;;;;;;;24.90;93.70;;;;;;21125283;28;19922;-77
2023/06/27 16:33:22;;;;;;;;;;;24.60;94.60;;;;;;21116644;28;19918;-76
2023/06/27 16:43:22;;;;;;;;;;;24.00;95.50;;;;;;21129429;28;20328;-78
2023/06/27 16:53:23;;;;;;;;;;;24.10;95.70;;;;;;21176637;27;19911;-78
2023/06/27 17:03:24;;;;;;;;;;;24.50;96.30;;;;;;21168802;28;20034;-78
2023/06/27 17:13:26;;;;;;;;;;;24.30;95.50;;;;;;21146883;28;19999;-78
2023/06/27 17:23:27;;;;;;;;;;;24.40;95.90;;;;;;21152147;28;19915;-79
2023/06/27 17:33:27;;;;;;;;;;;24.10;95.80;;;;;;21158096;28;20388;-79
2023/06/27 17:43:28;;;;;;;;;;;24.10;95.10;;;;;;21197199;22;19927;-78
2023/06/27 17:53:28;;;;;;;;;;;24.30;95.10;;;;;;21167791;28;19912;-79
2023/06/27 18:03:30;;;;;;;;;;;23.90;96.50;;;;;;21184917;28;19955;-78
2023/06/27 18:13:31;;;;;;;;;;;24.80;96.30;;;;;;21186384;28;19916;-79
2023/06/27 18:23:31;;;;;;;;;;;24.70;96.80;;;;;;21185882;28;19969;-78
2023/06/27 18:33:33;;;;;;;;;;;25.80;95.70;;;;;;21177438;28;19915;-78
2023/06/27 18:43:33;;;;;;;;;;;25.70;95.70;;;;;;21181318;28;19921;-79
2023/06/27 18:53:34;;;;;;;;;;;24.00;98.10;;;;;;21167622;28;19920;-77
2023/06/27 19:03:39;;;;;;;;;;;22.20;99.90;;;;;;21173035;28;19920;-78
2023/06/27 19:13:39;;;;;;;;;;;21.60;99.90;;;;;;21159696;28;20509;-78
2023/06/27 19:23:40;;;;;;;;;;;20.90;99.90;;;;;;21170131;28;19916;-80
2023/06/27 19:33:43;;;;;;;;;;;20.20;99.90;;;;;;21172402;28;19923;-80
2023/06/27 19:43:43;;;;;;;;;;;19.90;99.90;;;;;;21162979;28;19961;-80
2023/06/27 19:53:44;;;;;;;;;;;19.60;99.90;;;;;;21179918;28;20399;-79
2023/06/27 20:03:45;;;;;;;;;;;18.80;99.90;;;;;;21213490;27;19915;-79
2023/06/27 20:13:45;;;;;;;;;;;18.50;99.90;;;;;;21221177;27;19911;-80
2023/06/27 20:23:46;;;;;;;;;;;18.90;99.90;;;;;;21159198;28;19973;-80
2023/06/27 20:33:47;;;;;;;;;;;19.30;99.90;;;;;;21173169;28;19918;-79
2023/06/27 20:43:49;;;;;;;;;;;19.00;99.90;;;;;;21182856;27;19922;-78
2023/06/27 20:53:50;;;;;;;;;;;18.60;99.90;;;;;;21182924;27;19971;-79
2023/06/27 21:03:51;;;;;;;;;;;18.50;99.90;;;;;;21144289;28;19969;-79
2023/06/27 21:13:51;;;;;;;;;;;17.80;99.90;;;;;;21165314;28;19912;-80
2023/06/27 21:23:52;;;;;;;;;;;17.80;99.90;;;;;;21174020;28;20444;-81
2023/06/27 21:33:53;;;;;;;;;;;17.90;99.90;;;;;;21140232;28;19945;-76
2023/06/27 21:43:53;;;;;;;;;;;17.50;99.90;;;;;;21156957;28;19954;-76
2023/06/27 21:53:54;;;;;;;;;;;16.80;99.90;;;;;;21156859;28;20024;-75
2023/06/27 22:03:54;;;;;;;;;;;16.40;99.90;;;;;;21137936;28;19969;-75
2023/06/27 22:13:55;;;;;;;;;;;16.30;99.90;;;;;;21146540;28;20021;-76
2023/06/27 22:23:56;;;;;;;;;;;16.30;99.90;;;;;;21174623;27;19916;-75
2023/06/27 22:33:56;;;;;;;;;;;16.00;99.90;;;;;;21211526;27;20445;-76
2023/06/27 22:43:57;;;;;;;;;;;15.90;99.90;;;;;;21205735;27;19944;-75
2023/06/27 22:53:58;;;;;;;;;;;15.50;99.90;;;;;;21169375;27;19926;-76
2023/06/27 23:03:58;;;;;;;;;;;15.30;99.90;;;;;;21166494;28;20294;-75
2023/06/27 23:13:59;;;;;;;;;;;15.10;99.90;;;;;;21149338;28;20302;-75
2023/06/27 23:23:59;;;;;;;;;;;15.50;99.90;;;;;;21166804;28;19919;-75
2023/06/27 23:34:01;;;;;;;;;;;15.30;99.90;;;;;;21165286;28;19915;-75
2023/06/27 23:44:02;;;;;;;;;;;15.20;99.90;;;;;;21164953;28;19963;-75
2023/06/27 23:54:02;;;;;;;;;;;15.10;99.90;;;;;;21164392;28;19912;-75
